WRLO2: Waurika Lake

Data processed at Thu May 23 2019 23:50


All information presented herein is the property of the government of the United States of America and may be revised or deleted at any time without prior notice.
Dissemination of this information without the expressed written consent of the Public Affairs Office, Tulsa District U.S. Army Corps of Engineers is strictly prohibited.
These data are gathered electronically and, as presented, have not undergone any form of quality control. These data are not guaranteed to be valid or correct.
Go to home page.
Go to station list.
Go to home page.

Upstream stations:

Downstream station:
Previous Day
Next Day
Current Day
    
SHEF ID:       WRLO2     Waurika Lake
STATION TYPE:  RESERVOIR
Flood Pool:  Bottom =   951.40, Top =   962.50

               PRECIP PRECIP(A) ELEVATION   STORAGE    INFLOW   RELEASE  AIR-TEMP  WIND-DIRWIND-SPEED REL-HUMID SOLAR-RAD   VOLTAGE  BAT-LOAD
                   in        in        ft     ac-ft       cfs       cfs         F       deg       mph         %      W/m2      volt      volt
              Ccp-Rev   Ccp-Rev   Ccp-Rev   Ccp-Rev  Rev-Regi  Rev-Regi   Ccp-Rev   Ccp-Rev   Ccp-Rev   Ccp-Rev   Ccp-Rev   Ccp-Rev   Ccp-Rev
(US/Central)
05/23 00:00      0.00      ----    955.07    229447      4782      1189     77.58    154.40     11.20     78.46      0.00     12.75     12.53
05/23 01:00      0.00      ----    955.09    229678      4243      1189     76.03    151.90      7.30     82.56      0.00     12.73     12.50
05/23 02:00      0.00      ----    955.10    229793      3672      1189     76.06    155.20     11.10     84.45      0.00     12.72     12.49
05/23 03:00      0.00      ----    955.12    230024      3098      1190     76.17    144.90     10.10     86.05      0.00     12.70     12.49
05/23 04:00      0.00      ----    955.13    230139      2802      1190     76.24    105.90      9.40     88.19      0.00     12.69     12.46
05/23 05:00      0.00      ----    955.14    230254      2516      1190     76.24    132.10      8.80     89.05      0.00     12.67     12.46
05/23 06:00      0.00      ----    955.15    230369      1960      1190     76.12    131.30      9.40     89.04      0.00     12.66     12.44
05/23 07:00      0.00      ----    955.15    230369      1943      1190     75.94    127.70      9.70     89.84      0.00     12.66     12.43
05/23 08:00      0.00      ----    955.15    230369      1443      1190     75.45     97.90      9.70     91.50     15.90     12.77     12.42
05/23 09:00      0.00      ----    955.16    230485       943      1190     76.46    113.30     12.20     87.70    133.90     13.26     12.50
05/23 10:00      0.00      ----    955.15    230369       715      1190     77.40    126.70     12.20     83.86    197.70     13.41     13.03
05/23 11:00      0.00      ----    955.14    230254       488      1190     79.81    139.70     15.10     76.63    447.40     13.69     13.23
05/23 12:00      0.00      ----    955.13    230139       488      1190     80.22    142.70     15.20     73.03    361.10     14.12     13.30
05/23 13:00      0.00      ----    955.12    230024       488      1190     83.17    137.30     17.50     67.83    693.40     13.74     13.30
05/23 14:00      0.00      ----    955.13    230139      1239      1190     84.92    146.00     17.20     63.54    747.30     13.38     13.55
05/23 15:00      0.00      ----    955.12    230024      1239      1190     85.39    141.60     16.00     63.36    635.70     13.41     13.24
05/23 16:00      0.00      ----    955.14    230254      1464      1190     86.05    142.30     16.90     60.34    567.40     13.37     13.06
05/23 17:00      0.00      ----    955.13    230139      1467      1190     86.67    140.30     15.30     59.59    529.60     13.87     13.06
05/23 18:00      0.00      ----    955.13    230139      1695      1190     86.29    140.40     16.20     59.09    457.20     13.81     13.03
05/23 19:00      0.00      ----    955.14    230254      1039      1190     85.37    139.80     15.20     60.66    297.00     14.11     13.06
05/23 20:00      0.00      ----    955.14    230254      1135      1190     83.25    138.80     13.90     64.27    109.70     13.06     13.09
05/23 21:00      0.00      ----    955.16    230485      1143      1190     79.52    126.60     11.00     73.18      1.50     12.80     12.78
05/23 22:00      0.00      ----    955.13    230139       748      1190     76.48    127.90      9.90     83.01      0.00     12.78     12.56
05/23 23:00      0.00      ----    955.13    230139       888      1190     76.42    132.90     11.00     82.66      0.00     12.77     12.54